Time;durP1;ratioP1;P1;durP2;ratioP2;P2;SDS_P1;SDS_P2;PMS_P1;PMS_P2;Temp;Humidity;BMP_temperature;BMP_pressure;BME280_temperature;BME280_humidity;BME280_pressure;Samples;Min_cycle;Max_cycle;Signal;HPM_P1;HPM_P2
2023/07/22 00:00:11;;;;;;;9.48;4.93;;;;;;;16.09;71.15;101269.25;7390345;19;20018;-63
2023/07/22 00:02:38;;;;;;;9.82;5.28;;;;;;;16.02;71.18;101260.09;7391623;19;20014;-64
2023/07/22 00:05:06;;;;;;;9.80;5.28;;;;;;;16.12;70.57;101263.66;7389891;19;20089;-64
2023/07/22 00:07:33;;;;;;;8.40;4.85;;;;;;;16.07;70.82;101265.91;7390639;19;20542;-64
2023/07/22 00:10:00;;;;;;;10.95;4.78;;;;;;;16.09;70.77;101259.41;7393953;19;20045;-64
2023/07/22 00:12:28;;;;;;;8.88;5.15;;;;;;;16.08;70.53;101264.91;7390264;19;20078;-64
2023/07/22 00:14:56;;;;;;;9.95;5.03;;;;;;;16.04;70.36;101256.31;7387932;19;20026;-64
2023/07/22 00:17:24;;;;;;;10.68;5.07;;;;;;;16.07;70.16;101256.06;7391243;19;20373;-64
2023/07/22 00:19:51;;;;;;;11.32;5.07;;;;;;;16.00;70.54;101264.75;7389459;19;20030;-63
2023/07/22 00:22:20;;;;;;;10.73;4.97;;;;;;;16.02;70.56;101262.78;7390196;19;20026;-64
2023/07/22 00:24:47;;;;;;;13.40;5.30;;;;;;;16.03;70.58;101267.16;7388660;19;20018;-64
2023/07/22 00:27:14;;;;;;;11.20;5.43;;;;;;;15.94;70.51;101254.59;7390210;19;20018;-64
2023/07/22 00:29:42;;;;;;;12.98;5.03;;;;;;;16.02;70.39;101260.09;7389890;19;20032;-65
2023/07/22 00:32:09;;;;;;;9.48;4.97;;;;;;;15.97;70.46;101257.00;7390626;19;20399;-65
2023/07/22 00:34:36;;;;;;;9.55;4.88;;;;;;;15.94;70.51;101257.25;7391387;19;20026;-64
2023/07/22 00:37:04;;;;;;;9.52;5.38;;;;;;;15.93;70.24;101252.91;7389723;19;20503;-64
2023/07/22 00:39:31;;;;;;;11.63;5.50;;;;;;;15.77;70.96;101256.09;7387606;19;20018;-64
2023/07/22 00:41:59;;;;;;;10.82;5.18;;;;;;;15.84;70.87;101262.59;7390241;19;20027;-64
2023/07/22 00:44:26;;;;;;;10.65;4.80;;;;;;;15.85;70.79;101248.25;7388118;19;20481;-63
2023/07/22 00:49:27;;;;;;;11.05;5.32;;;;;;;15.72;70.88;101242.28;7394385;19;20330;-66
2023/07/22 00:52:00;;;;;;;10.35;5.40;;;;;;;15.81;71.03;101257.50;7388269;19;20019;-68
2023/07/22 00:54:28;;;;;;;11.03;5.23;;;;;;;15.87;70.47;101272.13;7390789;19;20092;-62
2023/07/22 00:56:56;;;;;;;10.98;5.07;;;;;;;15.87;70.67;101266.78;7395998;19;20014;-62
2023/07/22 00:59:25;;;;;;;11.70;5.70;;;;;;;15.84;70.58;101263.44;7395352;19;20018;-63
2023/07/22 01:01:52;;;;;;;10.70;5.60;;;;;;;15.79;71.02;101256.78;7396281;19;20082;-62
2023/07/22 01:04:23;;;;;;;9.65;5.25;;;;;;;15.75;70.92;101253.53;7396135;19;20031;-65
2023/07/22 01:06:59;;;;;;;11.88;5.80;;;;;;;15.75;71.05;101252.69;7396434;19;20082;-69
2023/07/22 01:09:34;;;;;;;14.75;6.05;;;;;;;15.79;70.74;101238.94;7395060;19;20055;-63
2023/07/22 01:12:02;;;;;;;10.55;5.72;;;;;;;15.68;71.08;101249.75;7396295;19;20035;-65
2023/07/22 01:14:29;;;;;;;11.05;5.45;;;;;;;15.67;71.20;101247.19;7395534;19;20039;-62
2023/07/22 01:16:56;;;;;;;12.13;5.50;;;;;;;15.72;70.95;101244.94;7395822;19;20362;-63
2023/07/22 01:19:24;;;;;;;12.75;5.43;;;;;;;15.66;70.94;101248.16;7394653;19;20011;-64
2023/07/22 01:21:53;;;;;;;11.27;5.78;;;;;;;15.65;70.98;101247.31;7394741;19;20014;-66
2023/07/22 01:24:21;;;;;;;11.73;5.50;;;;;;;15.68;70.87;101247.06;7395910;19;20044;-68
2023/07/22 01:26:49;;;;;;;12.65;5.72;;;;;;;15.60;70.86;101234.31;7393330;19;20082;-69
2023/07/22 01:29:16;;;;;;;13.85;5.97;;;;;;;15.62;70.81;101242.22;7395568;19;20021;-65
2023/07/22 01:31:48;;;;;;;11.40;5.45;;;;;;;15.64;70.99;101234.06;7396328;19;20487;-65
2023/07/22 01:34:16;;;;;;;12.85;5.53;;;;;;;15.63;70.87;101230.53;7398497;19;20015;-63
2023/07/22 01:36:48;;;;;;;12.23;5.55;;;;;;;15.68;70.42;101241.72;7394545;19;20508;-67
2023/07/22 01:39:17;;;;;;;14.38;5.63;;;;;;;15.62;70.69;101228.88;7394641;19;20022;-67
2023/07/22 01:41:44;;;;;;;11.75;5.68;;;;;;;15.48;71.03;101245.22;7395733;19;20377;-64
2023/07/22 01:44:11;;;;;;;12.68;5.40;;;;;;;15.49;70.93;101226.44;7395541;19;20491;-65
2023/07/22 01:46:39;;;;;;;15.68;5.80;;;;;;;15.43;71.08;101234.13;7395141;19;20034;-68
2023/07/22 01:49:10;;;;;;;13.95;5.43;;;;;;;15.49;70.89;101236.25;7391207;19;20094;-65
2023/07/22 01:51:40;;;;;;;10.40;5.50;;;;;;;15.50;71.09;101238.78;7395232;19;20010;-72
2023/07/22 01:54:09;;;;;;;11.00;5.22;;;;;;;15.50;70.78;101236.13;7395019;19;20014;-65
2023/07/22 01:56:37;;;;;;;14.80;5.88;;;;;;;15.54;70.90;101239.38;7393269;19;20562;-69
2023/07/22 01:59:05;;;;;;;11.73;5.28;;;;;;;15.35;71.34;101238.28;7392431;19;20021;-60
2023/07/22 02:01:32;;;;;;;11.60;5.68;;;;;;;15.40;71.27;101245.06;7394353;19;20018;-65
2023/07/22 02:04:00;;;;;;;10.48;5.30;;;;;;;15.32;71.20;101235.88;7394247;19;20348;-62
2023/07/22 02:06:28;;;;;;;12.23;5.65;;;;;;;15.32;71.39;101245.72;7392295;19;20045;-67
2023/07/22 02:08:56;;;;;;;11.77;5.38;;;;;;;15.35;71.06;101230.28;7392028;19;20019;-62
2023/07/22 02:11:24;;;;;;;11.52;5.82;;;;;;;15.30;71.26;101232.50;7394291;19;20015;-62
2023/07/22 02:13:51;;;;;;;12.95;6.50;;;;;;;15.32;71.26;101235.88;7394057;19;20035;-61
2023/07/22 02:16:18;;;;;;;11.52;6.07;;;;;;;15.28;71.35;101228.28;7393722;19;20023;-65
2023/07/22 02:18:47;;;;;;;13.65;5.40;;;;;;;15.21;71.43;101233.28;7391825;19;20044;-64
2023/07/22 02:21:14;;;;;;;11.77;5.20;;;;;;;15.25;71.40;101237.38;7394427;19;20022;-63
2023/07/22 02:23:42;;;;;;;11.55;4.90;;;;;;;15.20;71.67;101236.94;7392090;19;20503;-65
2023/07/22 02:26:10;;;;;;;9.90;4.72;;;;;;;15.23;71.41;101239.34;7393084;19;20333;-64
2023/07/22 02:28:37;;;;;;;10.80;5.40;;;;;;;15.28;71.68;101244.28;7392354;19;20017;-63
2023/07/22 02:31:06;;;;;;;12.40;5.25;;;;;;;15.23;71.60;101238.50;7393741;19;20043;-62
2023/07/22 02:33:34;;;;;;;11.55;5.50;;;;;;;15.19;71.55;101237.09;7396060;19;20023;-63
2023/07/22 02:36:02;;;;;;;11.20;4.93;;;;;;;15.21;71.65;101238.63;7392386;19;20018;-66
2023/07/22 02:38:29;;;;;;;12.55;5.55;;;;;;;15.26;71.37;101247.09;7392199;19;20019;-65
2023/07/22 02:41:06;;;;;;;9.98;4.80;;;;;;;15.28;71.21;101257.63;7393348;19;20014;-66
2023/07/22 02:43:34;;;;;;;11.38;5.20;;;;;;;15.27;71.33;101261.28;7393116;19;20082;-63
2023/07/22 02:46:05;;;;;;;11.00;5.07;;;;;;;15.25;71.49;101258.72;7390573;19;20014;-66
2023/07/22 02:48:32;;;;;;;13.02;5.68;;;;;;;15.17;71.83;101265.69;7391232;19;20015;-61
2023/07/22 02:51:12;;;;;;;9.32;4.68;;;;;;;15.12;72.02;101260.75;7391359;19;20015;-61
2023/07/22 02:53:41;;;;;;;9.98;4.55;;;;;;;14.99;72.36;101260.94;7392906;19;20019;-61
2023/07/22 02:56:08;;;;;;;11.75;5.20;;;;;;;15.05;71.88;101265.75;7391393;19;20028;-60
2023/07/22 02:58:36;;;;;;;10.50;5.10;;;;;;;15.13;71.93;101272.28;7391142;19;20018;-61
2023/07/22 03:01:05;;;;;;;11.95;5.13;;;;;;;15.13;71.90;101286.44;7392878;19;20014;-60
2023/07/22 03:03:33;;;;;;;11.13;4.97;;;;;;;15.19;71.65;101277.09;7392381;19;20010;-60
2023/07/22 03:06:01;;;;;;;12.10;5.38;;;;;;;15.16;71.76;101282.69;7392198;19;20025;-62
2023/07/22 03:08:30;;;;;;;12.50;5.35;;;;;;;15.06;72.17;101282.59;7390534;19;20018;-61
2023/07/22 03:10:57;;;;;;;11.43;5.53;;;;;;;15.10;72.17;101284.03;7390926;19;20074;-63
2023/07/22 03:13:29;;;;;;;11.93;5.50;;;;;;;15.06;72.27;101278.13;7392103;19;20045;-63
2023/07/22 03:15:57;;;;;;;10.88;5.15;;;;;;;15.11;72.05;101281.25;7391410;19;20019;-62
2023/07/22 03:18:25;;;;;;;10.40;5.32;;;;;;;15.07;72.02;101285.16;7389194;19;20026;-60
2023/07/22 03:20:52;;;;;;;9.88;4.88;;;;;;;15.07;72.13;101285.16;7390701;19;20044;-60
2023/07/22 03:23:19;;;;;;;12.63;5.35;;;;;;;15.05;72.10;101281.75;7391531;19;20023;-63
2023/07/22 03:25:48;;;;;;;14.05;5.50;;;;;;;14.99;72.10;101289.44;7389759;19;20039;-66
2023/07/22 03:28:16;;;;;;;11.18;4.90;;;;;;;15.00;72.29;101293.81;7390266;19;20074;-65
2023/07/22 03:30:43;;;;;;;13.05;5.32;;;;;;;14.98;72.23;101293.06;7388604;19;20025;-66
2023/07/22 03:33:11;;;;;;;11.43;5.60;;;;;;;15.03;72.06;101299.75;7389768;19;20022;-63
2023/07/22 03:35:38;;;;;;;12.15;5.20;;;;;;;15.08;71.73;101299.34;7390063;19;20018;-64
2023/07/22 03:38:07;;;;;;;11.32;5.18;;;;;;;15.01;72.05;101300.81;7390787;19;20019;-64
2023/07/22 03:40:35;;;;;;;9.88;4.82;;;;;;;15.06;71.87;101303.94;7388133;19;20006;-63
2023/07/22 03:43:02;;;;;;;10.45;5.18;;;;;;;15.04;71.82;101301.41;7391902;19;20386;-65
2023/07/22 03:45:30;;;;;;;11.55;5.10;;;;;;;15.02;71.88;101302.50;7389139;19;20018;-69
2023/07/22 03:47:59;;;;;;;10.82;4.45;;;;;;;15.04;72.00;101303.25;7389034;19;20010;-69
2023/07/22 03:50:27;;;;;;;9.30;4.93;;;;;;;14.99;72.02;101302.75;7391171;19;20022;-68
2023/07/22 03:52:55;;;;;;;10.20;5.38;;;;;;;15.00;72.31;101310.66;7389696;19;20022;-67
2023/07/22 03:55:23;;;;;;;12.20;4.90;;;;;;;15.01;72.12;101311.50;7390629;19;20018;-67
2023/07/22 03:57:50;;;;;;;11.68;4.97;;;;;;;15.00;72.03;101305.31;7390460;19;20056;-65
2023/07/22 04:00:18;;;;;;;11.77;4.82;;;;;;;15.02;71.95;101314.03;7388233;19;20068;-66
2023/07/22 04:02:45;;;;;;;10.15;4.75;;;;;;;15.06;72.08;101309.28;7390970;19;20043;-65
2023/07/22 04:05:12;;;;;;;11.25;5.20;;;;;;;15.07;71.86;101322.50;7390579;19;20082;-65
2023/07/22 04:07:40;;;;;;;8.82;4.80;;;;;;;15.04;71.76;101311.25;7389662;19;20030;-67
2023/07/22 04:10:07;;;;;;;9.30;4.75;;;;;;;15.02;71.97;101306.03;7390478;19;20027;-67
2023/07/22 04:12:34;;;;;;;10.55;4.88;;;;;;;15.00;72.05;101302.66;7390438;19;20010;-67
2023/07/22 04:15:03;;;;;;;12.43;5.35;;;;;;;15.02;71.92;101306.03;7389968;19;20025;-67
2023/07/22 04:17:33;;;;;;;11.65;5.47;;;;;;;15.02;72.15;101305.19;7389464;19;20023;-67
2023/07/22 04:20:00;;;;;;;10.68;5.03;;;;;;;14.93;72.41;101317.47;7389873;19;20015;-67
2023/07/22 04:22:28;;;;;;;11.82;5.07;;;;;;;14.91;72.37;101315.91;7390936;19;20043;-68
2023/07/22 04:24:56;;;;;;;9.93;5.05;;;;;;;15.01;72.05;101322.16;7389325;19;20022;-68
2023/07/22 04:27:23;;;;;;;9.88;4.90;;;;;;;15.04;71.94;101317.44;7390210;19;20070;-68
2023/07/22 04:29:51;;;;;;;12.23;5.22;;;;;;;15.06;71.72;101319.94;7390671;19;20056;-68
2023/07/22 04:32:18;;;;;;;13.93;5.35;;;;;;;14.98;72.15;101325.94;7398020;19;20026;-68
2023/07/22 04:34:45;;;;;;;11.93;5.28;;;;;;;15.03;71.82;101326.41;7398998;19;20011;-67
2023/07/22 04:37:13;;;;;;;13.40;5.43;;;;;;;14.97;72.02;101334.91;7396761;19;20503;-68
2023/07/22 04:39:40;;;;;;;11.10;5.57;;;;;;;15.04;71.96;101338.75;7396692;19;20488;-68
2023/07/22 04:42:07;;;;;;;9.85;4.72;;;;;;;15.14;71.74;101343.31;7397655;19;20053;-68
2023/07/22 04:44:35;;;;;;;13.35;5.47;;;;;;;15.10;71.69;101337.41;7394785;19;20019;-67
2023/07/22 04:47:02;;;;;;;10.20;4.88;;;;;;;15.07;71.68;101343.84;7396961;19;20021;-67
2023/07/22 04:49:30;;;;;;;11.80;5.25;;;;;;;15.10;71.75;101345.41;7396977;19;20010;-68
2023/07/22 04:51:57;;;;;;;10.55;5.00;;;;;;;15.11;71.75;101339.94;7397178;19;20018;-67
2023/07/22 04:54:24;;;;;;;10.88;5.10;;;;;;;15.10;71.80;101356.06;7397250;19;20081;-68
2023/07/22 04:56:51;;;;;;;10.70;5.70;;;;;;;15.02;71.97;101346.03;7395454;19;20041;-67
2023/07/22 04:59:19;;;;;;;13.75;5.53;;;;;;;15.08;71.91;101350.88;7396253;19;20070;-67
2023/07/22 05:01:46;;;;;;;11.57;5.35;;;;;;;15.14;71.60;101356.66;7396211;19;20019;-66
2023/07/22 05:04:13;;;;;;;12.45;5.28;;;;;;;15.14;71.57;101348.66;7395157;19;20082;-66
2023/07/22 05:06:41;;;;;;;13.02;5.50;;;;;;;15.10;71.47;101350.72;7395921;19;20021;-65
2023/07/22 05:09:08;;;;;;;11.38;5.28;;;;;;;15.09;71.62;101351.72;7392204;19;20035;-67
2023/07/22 05:11:35;;;;;;;10.25;5.10;;;;;;;15.19;71.15;101352.66;7395864;19;20024;-64
2023/07/22 05:14:02;;;;;;;10.68;5.63;;;;;;;15.29;71.03;101353.56;7396552;19;20016;-63
2023/07/22 05:16:30;;;;;;;10.88;5.35;;;;;;;15.25;71.25;101352.13;7395099;19;20015;-65
2023/07/22 05:18:58;;;;;;;11.20;5.47;;;;;;;15.31;71.33;101356.94;7394230;19;20023;-65
2023/07/22 05:21:25;;;;;;;12.32;5.45;;;;;;;15.32;70.96;101342.63;7393687;19;20019;-65
2023/07/22 05:23:52;;;;;;;11.23;5.43;;;;;;;15.36;70.97;101340.53;7394308;19;20018;-65
2023/07/22 05:26:20;;;;;;;13.20;5.68;;;;;;;15.36;70.98;101344.06;7394974;19;20011;-65
2023/07/22 05:28:47;;;;;;;10.93;5.22;;;;;;;15.42;70.76;101345.38;7391619;19;20029;-64
2023/07/22 05:31:16;;;;;;;10.27;4.68;;;;;;;15.55;70.35;101342.50;7394241;19;20014;-64
2023/07/22 05:33:43;;;;;;;12.60;5.40;;;;;;;15.57;70.43;101352.09;7397797;19;20058;-65
2023/07/22 05:36:10;;;;;;;12.18;5.30;;;;;;;15.67;70.26;101346.81;7393248;19;20027;-63
2023/07/22 05:38:38;;;;;;;14.13;5.30;;;;;;;15.72;70.30;101352.63;7393515;19;20011;-64
2023/07/22 05:41:05;;;;;;;10.02;4.90;;;;;;;15.76;70.19;101351.38;7391615;19;20081;-64
2023/07/22 05:43:33;;;;;;;10.30;4.60;;;;;;;15.74;70.19;101348.00;7395329;19;20018;-64
2023/07/22 05:46:00;;;;;;;9.65;4.70;;;;;;;15.77;70.02;101353.06;7395416;19;20039;-64
2023/07/22 05:48:28;;;;;;;8.32;4.25;;;;;;;15.78;70.04;101345.91;7391837;19;20018;-64
2023/07/22 05:50:55;;;;;;;9.38;4.30;;;;;;;15.80;69.73;101347.47;7395058;19;20138;-64
2023/07/22 05:53:22;;;;;;;9.48;4.43;;;;;;;15.91;69.13;101343.88;7395124;19;20097;-63
2023/07/22 05:55:50;;;;;;;9.80;5.13;;;;;;;15.88;69.31;101345.97;7393153;19;20028;-63
2023/07/22 05:58:18;;;;;;;9.35;4.43;;;;;;;15.94;69.21;101353.44;7393293;19;20566;-64
2023/07/22 06:00:49;;;;;;;9.43;4.43;;;;;;;16.00;69.13;101359.09;7393837;19;20128;-63
2023/07/22 06:03:16;;;;;;;11.93;4.47;;;;;;;16.08;69.00;101359.25;7393267;19;20018;-63
2023/07/22 06:05:44;;;;;;;8.88;4.32;;;;;;;16.08;68.64;101351.25;7394225;19;20047;-63
2023/07/22 06:08:11;;;;;;;9.23;4.25;;;;;;;16.13;68.92;101356.19;7393070;19;20030;-64
2023/07/22 06:10:40;;;;;;;12.68;4.85;;;;;;;16.18;68.87;101366.47;7393858;19;20018;-64
2023/07/22 06:13:08;;;;;;;11.25;5.10;;;;;;;16.22;68.56;101358.06;7394574;19;20582;-64
2023/07/22 06:15:35;;;;;;;10.38;4.60;;;;;;;16.32;68.25;101366.09;7391560;19;20014;-66
2023/07/22 06:18:02;;;;;;;11.70;4.63;;;;;;;16.35;68.13;101370.34;7393022;19;20023;-68
2023/07/22 06:20:30;;;;;;;9.63;4.47;;;;;;;16.33;68.13;101367.78;7391846;19;20019;-68
2023/07/22 06:22:57;;;;;;;10.65;4.95;;;;;;;16.32;68.46;101369.63;7394206;19;20077;-68
2023/07/22 06:25:24;;;;;;;8.60;4.53;;;;;;;16.31;68.34;101373.28;7393992;19;20019;-68
2023/07/22 06:27:53;;;;;;;12.30;4.80;;;;;;;16.20;68.77;101373.38;7392678;19;20014;-69
2023/07/22 06:30:21;;;;;;;10.73;4.30;;;;;;;16.20;68.62;101376.06;7393560;19;20086;-69
2023/07/22 06:32:48;;;;;;;9.32;4.25;;;;;;;16.24;68.39;101374.81;7393530;19;20506;-69
2023/07/22 06:35:16;;;;;;;9.93;4.07;;;;;;;16.29;68.41;101371.72;7393155;19;20044;-68
2023/07/22 06:37:43;;;;;;;8.95;4.00;;;;;;;16.33;68.37;101367.78;7390743;19;20022;-69
2023/07/22 06:40:11;;;;;;;10.07;4.60;;;;;;;16.35;68.16;101373.88;7393542;19;20023;-68
2023/07/22 06:42:38;;;;;;;9.25;4.00;;;;;;;16.37;68.23;101371.91;7393015;19;20018;-70
2023/07/22 06:45:06;;;;;;;10.65;4.13;;;;;;;16.40;68.11;101370.78;7392656;19;20405;-69
2023/07/22 06:47:34;;;;;;;11.25;3.90;;;;;;;16.29;67.91;101353.88;7391268;19;20026;-62
2023/07/22 06:50:04;;;;;;;9.57;3.50;;;;;;;16.49;67.73;101372.66;7393689;19;20015;-63
2023/07/22 06:52:32;;;;;;;8.18;3.50;;;;;;;16.54;67.74;101375.75;7390996;19;20018;-63
2023/07/22 06:55:00;;;;;;;7.10;3.50;;;;;;;16.60;67.46;101374.34;7391982;19;20025;-63
2023/07/22 06:57:29;;;;;;;7.05;3.50;;;;;;;16.62;67.45;101367.03;7391968;19;20023;-64
2023/07/22 06:59:56;;;;;;;8.60;3.30;;;;;;;16.65;67.34;101381.00;7392380;19;20477;-63
2023/07/22 07:02:24;;;;;;;6.32;3.20;;;;;;;16.73;67.45;101380.31;7391154;19;20019;-60
2023/07/22 07:04:51;;;;;;;9.43;3.30;;;;;;;16.70;67.34;101378.75;7390323;19;20072;-62
2023/07/22 07:07:19;;;;;;;7.38;3.13;;;;;;;16.74;67.17;101376.66;7392786;19;20026;-62
2023/07/22 07:09:46;;;;;;;10.23;3.60;;;;;;;16.75;67.20;101378.34;7392533;19;20022;-60
2023/07/22 07:12:13;;;;;;;8.68;3.80;;;;;;;16.65;66.98;101381.00;7391925;19;20359;-60
2023/07/22 07:14:40;;;;;;;8.63;4.00;;;;;;;16.65;66.75;101380.16;7391867;19;20031;-61
2023/07/22 07:17:08;;;;;;;8.20;2.92;;;;;;;16.68;66.83;101382.56;7392362;19;20018;-62
2023/07/22 07:19:35;;;;;;;7.35;3.35;;;;;;;16.76;66.56;101372.03;7390546;19;20078;-63
2023/07/22 07:22:02;;;;;;;9.70;3.58;;;;;;;16.90;66.07;101368.94;7390619;19;20023;-63
2023/07/22 07:24:30;;;;;;;7.80;3.75;;;;;;;16.99;65.84;101367.28;7390248;19;20043;-59
2023/07/22 07:26:57;;;;;;;6.97;3.20;;;;;;;17.00;65.85;101368.97;7391496;19;20386;-60
2023/07/22 07:29:24;;;;;;;9.93;3.55;;;;;;;16.95;65.89;101368.56;7388539;19;20055;-64
2023/07/22 07:32:12;;;;;;;8.20;3.42;;;;;;;16.89;66.00;101374.44;7389957;19;20023;-64
2023/07/22 07:34:39;;;;;;;6.95;2.88;;;;;;;16.90;65.88;101374.28;7394959;19;20040;-62
2023/07/22 07:37:06;;;;;;;8.23;3.15;;;;;;;16.91;65.89;101373.34;7392078;19;20023;-62
2023/07/22 07:39:34;;;;;;;9.38;3.35;;;;;;;16.95;66.49;101379.25;7389223;19;20450;-61
2023/07/22 07:42:01;;;;;;;6.82;2.85;;;;;;;16.95;65.98;101372.06;7388200;19;20019;-63
2023/07/22 07:44:29;;;;;;;7.68;3.00;;;;;;;17.05;65.11;101380.09;7391102;19;20101;-61
2023/07/22 07:46:56;;;;;;;7.75;3.13;;;;;;;17.13;65.30;101380.22;7390953;19;20078;-60
2023/07/22 07:49:23;;;;;;;7.75;3.53;;;;;;;17.09;65.15;101378.81;7389641;19;20007;-60
2023/07/22 07:51:51;;;;;;;7.70;3.05;;;;;;;17.14;65.10;101376.59;7389336;19;20491;-64
2023/07/22 07:54:18;;;;;;;7.88;3.08;;;;;;;17.20;65.26;101380.53;7389033;19;20503;-65
2023/07/22 07:56:45;;;;;;;9.20;2.95;;;;;;;17.25;64.91;101389.84;7389871;19;20043;-64
2023/07/22 07:59:12;;;;;;;7.85;3.22;;;;;;;17.30;64.98;101387.56;7389556;19;20018;-65
2023/07/22 08:01:41;;;;;;;8.25;2.80;;;;;;;17.36;64.90;101391.53;7390149;19;20018;-64
2023/07/22 08:04:09;;;;;;;7.35;3.47;;;;;;;17.37;64.75;101389.69;7390555;19;20023;-64
2023/07/22 08:06:37;;;;;;;8.95;3.42;;;;;;;17.35;64.53;101397.00;7388535;19;20347;-64
2023/07/22 08:09:05;;;;;;;6.63;2.72;;;;;;;17.30;64.27;101395.59;7388586;19;20026;-65
2023/07/22 08:11:33;;;;;;;7.03;2.65;;;;;;;17.36;64.40;101401.38;7388945;19;20014;-65
2023/07/22 08:14:01;;;;;;;6.60;3.08;;;;;;;17.39;63.68;101388.53;7390483;19;20131;-62
2023/07/22 08:16:28;;;;;;;7.53;2.90;;;;;;;17.54;63.82;101397.84;7389994;19;20089;-62
2023/07/22 08:18:56;;;;;;;7.63;3.17;;;;;;;17.69;63.14;101395.56;7389327;19;20095;-62
2023/07/22 08:21:24;;;;;;;6.70;2.80;;;;;;;17.63;63.69;101397.97;7389392;19;20018;-63
2023/07/22 08:23:51;;;;;;;6.82;2.85;;;;;;;17.67;63.37;101394.03;7389851;19;20105;-62
2023/07/22 08:26:20;;;;;;;8.77;3.08;;;;;;;17.71;63.68;101390.09;7389072;19;20031;-65
2023/07/22 08:28:48;;;;;;;7.53;2.97;;;;;;;17.66;63.34;101389.66;7389079;19;20060;-66
2023/07/22 08:31:15;;;;;;;6.75;2.83;;;;;;;17.76;63.04;101395.88;7389924;19;20089;-64
2023/07/22 08:33:43;;;;;;;7.82;2.88;;;;;;;17.89;62.46;101399.06;7392155;19;20094;-64
2023/07/22 08:36:10;;;;;;;6.03;2.75;;;;;;;17.87;61.94;101387.66;7389139;19;20022;-65
2023/07/22 08:38:37;;;;;;;6.45;2.70;;;;;;;17.95;62.23;101393.16;7388280;19;20019;-65
2023/07/22 08:41:05;;;;;;;6.50;2.83;;;;;;;18.16;61.96;101384.03;7389426;19;20019;-66
2023/07/22 08:43:34;;;;;;;7.78;3.17;;;;;;;18.35;61.47;101386.63;7389333;19;20018;-61
2023/07/22 08:46:02;;;;;;;7.30;3.55;;;;;;;18.35;60.27;101383.97;7388247;19;20018;-62
2023/07/22 08:48:34;;;;;;;7.60;3.65;;;;;;;18.42;59.82;101386.91;7388395;19;20472;-62
2023/07/22 08:51:10;;;;;;;7.45;4.05;;;;;;;18.50;59.69;101393.19;7389949;19;20022;-63
2023/07/22 08:53:38;;;;;;;7.85;3.42;;;;;;;18.40;59.95;101392.41;7389384;19;20015;-63
2023/07/22 08:56:05;;;;;;;9.45;3.65;;;;;;;18.50;60.49;101389.69;7388789;19;20500;-64
2023/07/22 08:58:34;;;;;;;9.38;3.78;;;;;;;18.68;60.20;101392.41;7387790;19;20029;-64
2023/07/22 09:01:01;;;;;;;9.27;3.97;;;;;;;18.84;59.15;101391.78;7388942;19;20022;-61
2023/07/22 09:03:29;;;;;;;9.02;4.53;;;;;;;18.81;59.01;101395.63;7389076;19;20022;-61
2023/07/22 09:05:57;;;;;;;9.73;4.57;;;;;;;18.66;59.11;101392.56;7386725;19;20018;-61
2023/07/22 09:08:24;;;;;;;9.45;4.97;;;;;;;18.69;58.99;101402.13;7387506;19;20484;-61
2023/07/22 09:10:53;;;;;;;10.07;4.57;;;;;;;18.62;58.77;101387.63;7388775;19;20094;-60
2023/07/22 09:13:22;;;;;;;9.40;4.75;;;;;;;18.60;59.28;101398.53;7388819;19;20015;-59
2023/07/22 09:15:50;;;;;;;11.93;5.00;;;;;;;18.62;59.72;101387.63;7390818;19;20067;-60
2023/07/22 09:18:18;;;;;;;10.30;4.90;;;;;;;18.65;59.06;101393.53;7393490;19;20026;-59
2023/07/22 09:20:45;;;;;;;9.95;5.15;;;;;;;18.63;58.99;101387.50;7395991;19;20060;-59
2023/07/22 09:23:13;;;;;;;11.10;5.50;;;;;;;18.76;58.69;101392.53;7391729;19;20032;-60
2023/07/22 09:25:42;;;;;;;9.30;5.07;;;;;;;18.88;58.71;101390.47;7394805;19;20037;-60
2023/07/22 09:28:09;;;;;;;10.57;5.18;;;;;;;18.87;58.75;101384.28;7393161;19;20027;-59
2023/07/22 09:30:39;;;;;;;11.30;5.80;;;;;;;18.81;58.90;101382.22;7395898;19;20018;-60
2023/07/22 09:33:20;;;;;;;12.90;5.45;;;;;;;18.72;59.12;101375.88;7394771;19;20018;-60
2023/07/22 09:35:49;;;;;;;10.95;5.50;;;;;;;18.62;59.75;101383.13;7394261;19;20030;-60
2023/07/22 09:38:24;;;;;;;11.02;5.57;;;;;;;18.65;59.12;101369.41;7394200;19;20049;-60
2023/07/22 09:40:53;;;;;;;10.20;5.78;;;;;;;18.65;59.53;101372.09;7394969;19;20488;-60
2023/07/22 09:43:23;;;;;;;10.15;5.85;;;;;;;18.75;59.29;101375.59;7395130;19;20147;-59
2023/07/22 09:45:50;;;;;;;14.30;6.28;;;;;;;18.92;58.80;101375.75;7392864;19;20041;-59
2023/07/22 09:48:18;;;;;;;10.40;5.63;;;;;;;18.88;58.62;101372.53;7393694;19;20018;-59
2023/07/22 09:50:46;;;;;;;11.43;6.43;;;;;;;18.99;58.67;101364.25;7394598;19;20023;-59
2023/07/22 09:53:16;;;;;;;12.40;5.70;;;;;;;19.23;57.43;101366.34;7394621;19;20484;-59
2023/07/22 09:55:44;;;;;;;11.27;6.35;;;;;;;19.25;57.31;101376.91;7393932;19;20035;-59
2023/07/22 09:58:14;;;;;;;12.05;7.10;;;;;;;19.26;57.68;101375.06;7393876;19;20030;-59
2023/07/22 10:00:48;;;;;;;11.75;5.82;;;;;;;19.36;57.34;101363.25;7393498;19;20391;-62
2023/07/22 10:03:19;;;;;;;11.05;5.70;;;;;;;19.42;57.08;101356.41;7392602;19;20504;-62
2023/07/22 10:05:48;;;;;;;11.18;6.18;;;;;;;19.46;56.79;101363.19;7392400;19;20140;-66
2023/07/22 10:08:18;;;;;;;11.13;6.30;;;;;;;19.42;57.41;101359.09;7393519;19;20050;-66
2023/07/22 10:10:47;;;;;;;12.20;6.32;;;;;;;19.41;57.74;101352.03;7394693;19;20025;-66
2023/07/22 10:13:14;;;;;;;11.18;6.20;;;;;;;19.65;56.52;101349.56;7394384;19;20014;-66
2023/07/22 10:15:42;;;;;;;11.43;6.00;;;;;;;19.88;56.14;101351.69;7393469;19;20019;-62
2023/07/22 10:18:10;;;;;;;10.93;6.43;;;;;;;20.00;55.88;101347.75;7392362;19;20040;-61
2023/07/22 10:23:15;;;;;;;12.23;7.00;;;;;;;20.01;56.22;101356.66;7426254;19;20704;-61
2023/07/22 10:25:43;;;;;;;11.70;6.38;;;;;;;20.04;55.38;101341.06;7427651;19;20010;-61
2023/07/22 10:28:13;;;;;;;11.93;6.70;;;;;;;20.02;55.33;101344.91;7426713;19;20468;-61
2023/07/22 10:30:40;;;;;;;11.05;6.18;;;;;;;20.05;55.39;101348.13;7428968;19;20095;-61
2023/07/22 10:33:08;;;;;;;12.93;6.10;;;;;;;20.05;55.25;101350.81;7428566;19;20035;-62
2023/07/22 10:35:42;;;;;;;10.77;6.32;;;;;;;20.10;55.91;101350.31;7427948;19;20036;-61
2023/07/22 10:38:11;;;;;;;12.55;6.55;;;;;;;19.99;55.49;101347.91;7427279;19;20018;-62
2023/07/22 10:40:50;;;;;;;12.25;6.53;;;;;;;19.82;55.38;101346.97;7427783;19;20025;-62
2023/07/22 10:43:25;;;;;;;11.48;6.35;;;;;;;19.77;56.12;101347.47;7425903;19;20015;-62
2023/07/22 10:45:54;;;;;;;13.32;6.60;;;;;;;19.81;56.73;101346.16;7429986;19;20014;-62
2023/07/22 10:48:26;;;;;;;10.73;6.03;;;;;;;19.78;57.29;101351.84;7423097;19;20014;-61
2023/07/22 10:50:58;;;;;;;10.38;5.32;;;;;;;19.66;56.73;101351.25;7425002;19;20018;-61
2023/07/22 10:53:26;;;;;;;10.83;5.20;;;;;;;19.60;57.45;101345.63;7426193;19;20021;-62
2023/07/22 10:56:20;;;;;;;9.45;5.13;;;;;;;19.66;56.87;101343.19;7424904;19;20356;-62
2023/07/22 10:58:47;;;;;;;10.02;4.85;;;;;;;19.72;56.55;101341.69;7423707;19;20019;-62
2023/07/22 11:01:24;;;;;;;9.20;4.65;;;;;;;19.90;55.56;101337.13;7424176;19;20086;-62
2023/07/22 11:04:12;;;;;;;9.88;5.47;;;;;;;20.08;54.94;101336.22;7425056;19;20039;-63
2023/07/22 11:06:48;;;;;;;10.32;4.93;;;;;;;20.00;54.94;101339.69;7424443;19;20029;-63
2023/07/22 11:09:34;;;;;;;7.88;4.28;;;;;;;20.06;54.48;101330.97;7422832;19;20018;-63
2023/07/22 11:12:05;;;;;;;8.90;4.70;;;;;;;20.08;54.28;101331.66;7424996;19;20349;-63
2023/07/22 11:15:05;;;;;;;10.73;5.47;;;;;;;20.15;54.07;101335.41;7424783;19;20022;-63
2023/07/22 11:17:33;;;;;;;10.05;5.05;;;;;;;20.15;54.76;101331.88;7421864;19;20233;-63
2023/07/22 11:20:02;;;;;;;8.98;4.88;;;;;;;20.17;54.66;101336.06;7424668;19;20043;-63
2023/07/22 11:22:30;;;;;;;8.98;5.18;;;;;;;20.03;54.60;101330.44;7422741;19;20014;-63
2023/07/22 11:24:58;;;;;;;10.77;5.03;;;;;;;20.00;55.00;101339.69;7424310;19;20018;-63
2023/07/22 11:27:25;;;;;;;10.00;5.07;;;;;;;20.07;54.81;101327.31;7424221;19;20022;-63
2023/07/22 11:29:52;;;;;;;11.27;5.50;;;;;;;20.11;54.03;101333.16;7424352;19;20018;-63